createdAt,value
2023-01-17T00:00:07.741Z,99.90
2023-01-17T00:02:37.816Z,99.90
2023-01-17T00:05:23.784Z,99.90
2023-01-17T00:08:09.515Z,99.90
2023-01-17T00:10:40.604Z,99.90
2023-01-17T00:13:07.563Z,99.90
2023-01-17T00:15:34.672Z,99.90
2023-01-17T00:18:01.676Z,99.90
2023-01-17T00:20:49.106Z,99.90
2023-01-17T00:23:36.062Z,99.90
2023-01-17T00:28:58.931Z,99.90
2023-01-17T00:31:28.362Z,99.90
2023-01-17T00:33:57.242Z,99.90
2023-01-17T00:36:25.044Z,99.90
2023-01-17T00:38:54.820Z,99.90
2023-01-17T00:41:24.403Z,99.90
2023-01-17T00:44:11.964Z,99.90
2023-01-17T00:46:59.861Z,99.90
2023-01-17T00:49:47.779Z,99.90
2023-01-17T00:52:33.158Z,99.90
2023-01-17T00:55:18.875Z,99.90
2023-01-17T00:58:04.397Z,99.90
2023-01-17T01:00:50.461Z,99.90
2023-01-17T01:03:36.244Z,99.90
2023-01-17T01:06:25.711Z,99.90
2023-01-17T01:09:13.342Z,99.90
2023-01-17T01:12:00.015Z,99.90
2023-01-17T01:14:46.015Z,99.90
2023-01-17T01:17:31.424Z,99.90
2023-01-17T01:20:17.200Z,99.90
2023-01-17T01:23:02.684Z,99.90
2023-01-17T01:25:48.349Z,99.90
2023-01-17T01:28:34.614Z,99.90
2023-01-17T01:31:32.252Z,99.90
2023-01-17T01:33:59.279Z,99.90
2023-01-17T01:36:26.123Z,99.90
2023-01-17T01:38:54.534Z,99.90
2023-01-17T01:41:21.507Z,99.90
2023-01-17T01:43:53.522Z,99.90
2023-01-17T01:46:25.642Z,99.90
2023-01-17T01:48:57.552Z,99.90
2023-01-17T01:51:38.603Z,99.90
2023-01-17T01:54:12.238Z,99.90
2023-01-17T01:56:40.689Z,99.90
2023-01-17T01:59:11.242Z,99.90
2023-01-17T02:01:38.299Z,99.90
2023-01-17T02:04:10.123Z,99.90
2023-01-17T02:06:48.935Z,99.90
2023-01-17T02:09:18.513Z,99.90
2023-01-17T02:11:47.030Z,99.90
2023-01-17T02:14:21.195Z,99.90
2023-01-17T02:17:06.939Z,99.90
2023-01-17T02:19:43.084Z,99.90
2023-01-17T02:22:34.487Z,99.90
2023-01-17T02:25:15.995Z,99.90
2023-01-17T02:28:12.444Z,99.90
2023-01-17T02:31:11.443Z,99.90
2023-01-17T02:34:06.866Z,99.90
2023-01-17T02:36:38.007Z,99.90
2023-01-17T02:39:08.567Z,99.90
2023-01-17T02:41:42.933Z,99.90
2023-01-17T02:44:11.525Z,99.90
2023-01-17T02:46:48.449Z,99.90
2023-01-17T02:49:17.856Z,99.90
2023-01-17T02:52:12.528Z,99.90
2023-01-17T02:55:01.339Z,99.90
2023-01-17T02:57:37.201Z,99.90
2023-01-17T03:00:23.910Z,99.90
2023-01-17T03:03:31.393Z,99.90
2023-01-17T03:06:11.654Z,99.90
2023-01-17T03:08:47.452Z,99.90
2023-01-17T03:11:14.790Z,99.90
2023-01-17T03:13:42.394Z,99.90
2023-01-17T03:16:14.987Z,99.90
2023-01-17T03:18:42.146Z,99.90
2023-01-17T03:21:09.105Z,99.90
2023-01-17T03:23:36.064Z,99.90
2023-01-17T03:26:03.088Z,99.90
2023-01-17T03:28:30.140Z,99.90
2023-01-17T03:30:57.058Z,99.90
2023-01-17T03:33:24.847Z,99.90
2023-01-17T03:35:51.804Z,99.90
2023-01-17T03:38:19.554Z,99.90
2023-01-17T03:40:46.451Z,99.90
2023-01-17T03:43:13.255Z,99.90
2023-01-17T03:45:40.248Z,99.90
2023-01-17T03:48:07.355Z,99.90
2023-01-17T03:50:35.249Z,99.90
2023-01-17T03:53:02.169Z,99.90
2023-01-17T03:55:29.487Z,99.90
2023-01-17T03:57:56.381Z,99.90
2023-01-17T04:00:24.466Z,99.90
2023-01-17T04:02:51.406Z,99.90
2023-01-17T04:05:18.387Z,99.90
2023-01-17T04:07:45.306Z,99.90
2023-01-17T04:10:12.100Z,99.90
2023-01-17T04:12:39.385Z,99.90
2023-01-17T04:15:07.986Z,99.90
2023-01-17T04:17:35.269Z,99.90
2023-01-17T04:20:02.134Z,99.90
2023-01-17T04:22:29.101Z,99.90
2023-01-17T04:24:55.886Z,99.90
2023-01-17T04:27:22.650Z,99.90
2023-01-17T04:29:49.613Z,99.90
2023-01-17T04:32:16.624Z,99.90
2023-01-17T04:34:43.667Z,99.90
2023-01-17T04:37:10.660Z,99.90
2023-01-17T04:39:37.576Z,99.90
2023-01-17T04:42:04.554Z,99.90
2023-01-17T04:44:31.385Z,99.90
2023-01-17T04:46:58.164Z,99.90
2023-01-17T04:49:24.992Z,99.90
2023-01-17T04:51:52.311Z,99.90
2023-01-17T04:54:19.129Z,99.90
2023-01-17T04:56:45.962Z,99.90
2023-01-17T04:59:12.749Z,99.90
2023-01-17T05:01:39.541Z,99.90
2023-01-17T05:04:07.029Z,99.90
2023-01-17T05:06:38.074Z,99.90
2023-01-17T05:09:04.867Z,99.90
2023-01-17T05:11:31.731Z,99.90
2023-01-17T05:13:58.782Z,99.90
2023-01-17T05:16:25.646Z,99.90
2023-01-17T05:18:57.509Z,99.90
2023-01-17T05:21:24.938Z,99.90
2023-01-17T05:23:52.122Z,99.90
2023-01-17T05:26:19.047Z,99.90
2023-01-17T05:28:45.918Z,99.90
2023-01-17T05:31:12.747Z,99.90
2023-01-17T05:33:39.646Z,99.90
2023-01-17T05:36:06.952Z,99.90
2023-01-17T05:38:33.754Z,99.90
2023-01-17T05:41:01.868Z,99.90
2023-01-17T05:43:29.317Z,99.90
2023-01-17T05:45:56.296Z,99.90
2023-01-17T05:48:23.092Z,99.90
2023-01-17T05:50:49.992Z,99.90
2023-01-17T05:53:17.352Z,99.90
2023-01-17T05:55:44.947Z,99.90
2023-01-17T05:58:18.025Z,99.90
2023-01-17T06:00:45.480Z,99.90
2023-01-17T06:03:17.760Z,99.90
2023-01-17T06:05:45.114Z,99.90
2023-01-17T06:08:12.354Z,99.90
2023-01-17T06:10:39.198Z,99.90
2023-01-17T06:13:15.355Z,99.90
2023-01-17T06:15:43.308Z,99.90
2023-01-17T06:18:19.512Z,99.90
2023-01-17T06:20:59.783Z,99.90
2023-01-17T06:23:26.953Z,99.90
2023-01-17T06:25:53.898Z,99.90
2023-01-17T06:28:22.898Z,99.90
2023-01-17T06:30:50.428Z,99.90
2023-01-17T06:33:17.998Z,99.90
2023-01-17T06:35:52.239Z,99.90
2023-01-17T06:38:20.204Z,99.90
2023-01-17T06:40:47.698Z,99.90
2023-01-17T06:43:15.206Z,99.90
2023-01-17T06:45:42.690Z,99.90
2023-01-17T06:48:09.972Z,99.90
2023-01-17T06:50:37.086Z,99.90
2023-01-17T06:53:06.604Z,99.90
2023-01-17T06:55:34.931Z,99.90
2023-01-17T06:58:03.164Z,99.90
2023-01-17T07:00:32.065Z,99.90
2023-01-17T07:03:03.024Z,99.90
2023-01-17T07:05:31.257Z,99.90
2023-01-17T07:07:58.510Z,99.90
2023-01-17T07:10:25.863Z,99.90
2023-01-17T07:13:01.135Z,99.90
2023-01-17T07:15:28.073Z,99.90
2023-01-17T07:17:55.019Z,99.90
2023-01-17T07:20:22.289Z,99.90
2023-01-17T07:22:49.716Z,99.90
2023-01-17T07:25:16.875Z,99.90
2023-01-17T07:27:44.113Z,99.90
2023-01-17T07:30:12.070Z,99.90
2023-01-17T07:32:39.338Z,99.90
2023-01-17T07:35:07.561Z,99.90
2023-01-17T07:37:34.793Z,99.90
2023-01-17T07:40:02.725Z,99.90
2023-01-17T07:42:30.076Z,99.90
2023-01-17T07:45:00.711Z,99.90
2023-01-17T07:47:27.646Z,99.90
2023-01-17T07:49:55.621Z,99.90
2023-01-17T07:52:27.006Z,99.90
2023-01-17T07:54:54.244Z,99.90
2023-01-17T07:57:21.673Z,99.90
2023-01-17T07:59:56.029Z,99.90
2023-01-17T08:02:24.367Z,99.90
2023-01-17T08:04:51.643Z,99.90
2023-01-17T08:07:21.696Z,99.90
2023-01-17T08:09:50.583Z,99.90
2023-01-17T08:12:18.083Z,99.90
2023-01-17T08:14:45.183Z,99.90
2023-01-17T08:17:17.739Z,99.90
2023-01-17T08:19:46.970Z,99.90
2023-01-17T08:22:14.169Z,99.90
2023-01-17T08:24:42.784Z,99.90
2023-01-17T08:27:10.231Z,99.90
2023-01-17T08:29:37.618Z,99.90
2023-01-17T08:32:05.049Z,99.90
2023-01-17T08:34:33.704Z,99.90
2023-01-17T08:37:01.011Z,99.90
2023-01-17T08:39:29.047Z,99.90
2023-01-17T08:41:58.462Z,99.90
2023-01-17T08:44:30.117Z,99.90
2023-01-17T08:46:57.581Z,99.90
2023-01-17T08:49:24.960Z,99.90
2023-01-17T08:51:55.073Z,99.90
2023-01-17T08:54:25.948Z,99.90
2023-01-17T08:56:53.134Z,99.90
2023-01-17T08:59:20.513Z,99.90
2023-01-17T09:01:51.165Z,99.90
2023-01-17T09:04:18.664Z,99.90
2023-01-17T09:06:48.584Z,99.90
2023-01-17T09:09:27.163Z,99.90
2023-01-17T09:11:54.230Z,99.90
2023-01-17T09:14:24.139Z,99.90
2023-01-17T09:16:52.636Z,99.90
2023-01-17T09:19:21.229Z,99.90
2023-01-17T09:21:48.274Z,99.90
2023-01-17T09:24:15.979Z,99.90
2023-01-17T09:26:44.494Z,99.90
2023-01-17T09:29:13.682Z,99.90
2023-01-17T09:31:42.435Z,99.90
2023-01-17T09:34:09.405Z,99.90
2023-01-17T09:36:36.468Z,99.90
2023-01-17T09:39:08.207Z,99.90
2023-01-17T09:41:47.168Z,99.90
2023-01-17T09:44:28.420Z,99.90
2023-01-17T09:47:37.241Z,99.90
2023-01-17T09:50:29.601Z,99.90
2023-01-17T09:53:09.935Z,99.90
2023-01-17T09:56:10.667Z,99.90
2023-01-17T09:58:51.115Z,99.90
2023-01-17T10:01:44.621Z,99.90
2023-01-17T10:04:42.223Z,99.90
2023-01-17T10:07:16.295Z,99.90
2023-01-17T10:10:18.498Z,99.90
2023-01-17T10:12:58.722Z,99.90
2023-01-17T10:16:01.811Z,99.90
2023-01-17T10:19:19.426Z,99.90
2023-01-17T10:22:11.421Z,99.90
2023-01-17T10:24:57.931Z,99.90
2023-01-17T10:27:50.746Z,99.90
2023-01-17T10:30:42.783Z,99.90
2023-01-17T10:33:27.846Z,99.90
2023-01-17T10:36:03.910Z,99.90
2023-01-17T10:38:43.550Z,99.90
2023-01-17T10:41:33.212Z,99.90
2023-01-17T10:44:26.504Z,99.90
2023-01-17T10:47:02.757Z,99.90
2023-01-17T10:49:31.557Z,99.90
2023-01-17T10:52:23.564Z,99.90
2023-01-17T10:55:09.639Z,99.90
2023-01-17T10:57:45.466Z,99.90
2023-01-17T11:00:25.126Z,98.50
2023-01-17T11:02:52.586Z,97.80
2023-01-17T11:05:28.849Z,97.90
2023-01-17T11:08:13.599Z,97.10
2023-01-17T11:10:44.677Z,96.90
2023-01-17T11:13:23.252Z,95.40
2023-01-17T11:15:53.685Z,95.10
2023-01-17T11:18:22.127Z,94.10
2023-01-17T11:20:49.914Z,94.30
2023-01-17T11:23:34.982Z,93.40
2023-01-17T11:26:06.024Z,92.20
2023-01-17T11:28:35.060Z,92.00
2023-01-17T11:31:26.518Z,92.00
2023-01-17T11:34:27.475Z,91.60
2023-01-17T11:37:15.695Z,91.50
2023-01-17T11:39:44.462Z,91.90
2023-01-17T11:42:36.175Z,92.30
2023-01-17T11:45:31.933Z,91.70
2023-01-17T11:48:09.158Z,91.80
2023-01-17T11:50:38.944Z,91.90
2023-01-17T11:53:16.225Z,92.10
2023-01-17T11:56:11.747Z,93.00
2023-01-17T11:58:48.978Z,92.30
2023-01-17T12:01:30.633Z,91.80
2023-01-17T12:04:20.017Z,92.30
2023-01-17T12:07:25.991Z,92.70
2023-01-17T12:10:22.649Z,91.60
2023-01-17T12:13:35.710Z,91.10
2023-01-17T12:16:32.718Z,91.00
2023-01-17T12:19:21.668Z,90.30
2023-01-17T12:22:39.360Z,91.30
2023-01-17T12:25:23.443Z,90.50
2023-01-17T12:28:18.682Z,89.00
2023-01-17T12:31:19.681Z,88.90
2023-01-17T12:34:04.619Z,89.00
2023-01-17T12:36:48.475Z,86.70
2023-01-17T12:39:19.246Z,87.50
2023-01-17T12:41:53.623Z,88.00
2023-01-17T12:44:33.349Z,87.90
2023-01-17T12:47:05.866Z,88.70
2023-01-17T12:49:42.869Z,87.60
2023-01-17T12:52:52.413Z,87.60
2023-01-17T12:55:33.285Z,87.30
2023-01-17T12:58:02.527Z,85.60
2023-01-17T13:00:31.216Z,87.60
2023-01-17T13:03:48.625Z,87.80
2023-01-17T13:06:25.054Z,89.50
2023-01-17T13:08:54.583Z,89.60
2023-01-17T13:11:28.595Z,87.50
2023-01-17T13:13:57.633Z,87.50
2023-01-17T13:16:35.631Z,87.40
2023-01-17T13:19:14.791Z,87.30
2023-01-17T13:21:41.706Z,87.10
2023-01-17T13:24:37.462Z,88.20
2023-01-17T13:27:16.118Z,87.40
2023-01-17T13:30:03.880Z,88.20
2023-01-17T13:32:45.704Z,88.80
2023-01-17T13:35:41.987Z,89.70
2023-01-17T13:38:25.643Z,89.40
2023-01-17T13:41:22.716Z,89.10
2023-01-17T13:44:08.070Z,89.00
2023-01-17T13:47:00.789Z,88.90
2023-01-17T13:49:33.900Z,90.00
2023-01-17T13:52:09.731Z,90.20
2023-01-17T13:54:48.411Z,90.40
2023-01-17T13:57:29.740Z,90.90
2023-01-17T13:59:59.190Z,90.80
2023-01-17T14:02:32.230Z,90.60
2023-01-17T14:05:24.007Z,90.80
2023-01-17T14:08:12.929Z,91.00
2023-01-17T14:10:52.163Z,90.60
2023-01-17T14:13:37.611Z,90.90
2023-01-17T14:16:29.111Z,90.90
2023-01-17T14:18:56.926Z,90.40
2023-01-17T14:21:27.461Z,90.60
2023-01-17T14:24:04.671Z,90.40
2023-01-17T14:26:45.225Z,90.90
2023-01-17T14:29:44.187Z,90.70
2023-01-17T14:32:14.215Z,90.90
2023-01-17T14:34:43.327Z,91.00
2023-01-17T14:37:36.967Z,90.10
2023-01-17T14:40:15.995Z,90.30
2023-01-17T14:42:43.476Z,90.50
2023-01-17T14:45:22.090Z,90.80
2023-01-17T14:47:51.731Z,90.80
2023-01-17T14:50:24.189Z,91.00
2023-01-17T14:53:13.247Z,91.20
2023-01-17T14:55:49.163Z,91.70
2023-01-17T14:58:24.676Z,91.20
2023-01-17T15:00:58.109Z,91.80
2023-01-17T15:03:25.498Z,91.90
2023-01-17T15:05:54.804Z,92.80
2023-01-17T15:08:27.051Z,92.30
2023-01-17T15:10:58.958Z,92.20
2023-01-17T15:13:49.621Z,92.80
2023-01-17T15:16:29.674Z,92.80
2023-01-17T15:18:57.448Z,93.10
2023-01-17T15:21:34.034Z,94.10
2023-01-17T15:24:03.844Z,94.30
2023-01-17T15:26:35.413Z,94.90
2023-01-17T15:29:24.264Z,94.40
2023-01-17T15:31:54.970Z,94.70
2023-01-17T15:34:32.182Z,95.90
2023-01-17T15:37:02.408Z,96.10
2023-01-17T15:39:33.049Z,96.00
2023-01-17T15:42:03.773Z,97.20
2023-01-17T15:44:50.273Z,98.90
2023-01-17T15:47:43.739Z,98.50
2023-01-17T15:50:24.717Z,98.40
2023-01-17T15:52:55.772Z,99.90
2023-01-17T15:55:34.383Z,99.90
2023-01-17T15:58:02.451Z,99.50
2023-01-17T16:00:47.929Z,99.90
2023-01-17T16:03:24.520Z,99.90
2023-01-17T16:05:53.390Z,99.90
2023-01-17T16:08:29.468Z,99.90
2023-01-17T16:11:02.574Z,99.90
2023-01-17T16:13:35.731Z,99.90
2023-01-17T16:16:19.915Z,99.90
2023-01-17T16:18:48.354Z,99.90
2023-01-17T16:21:18.782Z,99.90
2023-01-17T16:23:46.916Z,99.90
2023-01-17T16:26:14.247Z,99.90
2023-01-17T16:28:41.190Z,99.90
2023-01-17T16:31:08.134Z,99.90
2023-01-17T16:33:34.955Z,99.90
2023-01-17T16:36:02.008Z,99.90
2023-01-17T16:38:28.929Z,99.90
2023-01-17T16:40:55.781Z,99.90
2023-01-17T16:43:22.863Z,99.90
2023-01-17T16:45:52.974Z,99.90
2023-01-17T16:48:20.632Z,99.90
2023-01-17T16:50:53.053Z,99.90
2023-01-17T16:53:24.356Z,99.90
2023-01-17T16:55:53.977Z,99.90
2023-01-17T16:58:20.899Z,99.90
2023-01-17T17:00:47.946Z,99.90
2023-01-17T17:03:19.198Z,99.90
2023-01-17T17:06:00.805Z,99.90
2023-01-17T17:08:31.241Z,99.90
2023-01-17T17:11:18.763Z,99.90
2023-01-17T17:13:47.487Z,99.90
2023-01-17T17:16:17.510Z,99.90
2023-01-17T17:18:47.584Z,99.90
2023-01-17T17:21:14.727Z,99.90
2023-01-17T17:23:41.667Z,99.90
2023-01-17T17:26:08.528Z,99.90
2023-01-17T17:28:35.884Z,99.90
2023-01-17T17:31:08.690Z,99.90
2023-01-17T17:33:36.837Z,99.90
2023-01-17T17:36:05.887Z,99.90
2023-01-17T17:38:36.376Z,99.90
2023-01-17T17:41:09.831Z,99.90
2023-01-17T17:43:42.820Z,99.90
2023-01-17T17:46:09.933Z,99.90
2023-01-17T17:48:36.931Z,99.90
2023-01-17T17:51:04.665Z,99.90
2023-01-17T17:53:32.492Z,99.90
2023-01-17T17:56:04.443Z,99.90
2023-01-17T17:58:33.676Z,99.90
2023-01-17T18:01:06.518Z,99.90
2023-01-17T18:03:34.157Z,99.90
2023-01-17T18:06:06.038Z,99.90
2023-01-17T18:08:34.004Z,99.90
2023-01-17T18:11:14.885Z,99.90
2023-01-17T18:13:43.074Z,99.90
2023-01-17T18:16:14.964Z,99.90
2023-01-17T18:18:45.327Z,99.90
2023-01-17T18:21:25.401Z,99.90
2023-01-17T18:23:55.064Z,99.90
2023-01-17T18:26:46.261Z,99.90
2023-01-17T18:29:15.925Z,99.90
2023-01-17T18:31:44.722Z,99.90
2023-01-17T18:34:17.103Z,99.90
2023-01-17T18:36:44.528Z,99.90
2023-01-17T18:39:17.114Z,99.90
2023-01-17T18:41:44.444Z,99.90
2023-01-17T18:44:12.181Z,99.90
2023-01-17T18:46:40.410Z,99.90
2023-01-17T18:49:07.971Z,99.90
2023-01-17T18:51:34.970Z,99.90
2023-01-17T18:54:05.823Z,99.90
2023-01-17T18:56:36.410Z,99.90
2023-01-17T18:59:05.964Z,99.90
2023-01-17T19:01:35.841Z,99.90
2023-01-17T19:04:05.330Z,99.90
2023-01-17T19:06:34.900Z,99.90
2023-01-17T19:09:01.853Z,99.90
2023-01-17T19:11:28.957Z,99.90
2023-01-17T19:13:56.609Z,99.90
2023-01-17T19:16:28.180Z,99.90
2023-01-17T19:18:57.410Z,99.90
2023-01-17T19:21:26.090Z,99.90
2023-01-17T19:23:53.964Z,99.90
2023-01-17T19:26:23.176Z,99.90
2023-01-17T19:28:50.965Z,99.90
2023-01-17T19:31:21.202Z,99.90
2023-01-17T19:33:50.539Z,99.90
2023-01-17T19:36:20.833Z,99.90
2023-01-17T19:39:03.113Z,99.90
2023-01-17T19:41:32.629Z,99.90
2023-01-17T19:44:06.625Z,99.90
2023-01-17T19:46:34.470Z,99.90
2023-01-17T19:49:02.267Z,99.90
2023-01-17T19:51:29.234Z,99.90
2023-01-17T19:53:59.170Z,99.90
2023-01-17T19:56:27.105Z,99.90
2023-01-17T19:58:54.149Z,99.90
2023-01-17T20:01:24.789Z,99.90
2023-01-17T20:03:52.168Z,99.90
2023-01-17T20:06:21.859Z,99.90
2023-01-17T20:08:49.402Z,99.90
2023-01-17T20:11:21.861Z,99.90
2023-01-17T20:13:56.129Z,99.90
2023-01-17T20:16:24.973Z,99.90
2023-01-17T20:18:52.997Z,99.90
2023-01-17T20:21:23.382Z,99.90
2023-01-17T20:23:52.393Z,99.90
2023-01-17T20:26:23.367Z,99.90
2023-01-17T20:28:51.895Z,99.90
2023-01-17T20:31:22.119Z,99.90
2023-01-17T20:33:50.901Z,99.90
2023-01-17T20:36:20.286Z,99.90
2023-01-17T20:38:48.812Z,99.90
2023-01-17T20:41:22.011Z,99.90
2023-01-17T20:43:51.808Z,99.90
2023-01-17T20:46:20.892Z,99.90
2023-01-17T20:48:50.357Z,99.90
2023-01-17T20:51:18.667Z,99.90
2023-01-17T20:53:47.395Z,99.90
2023-01-17T20:56:15.644Z,99.90
2023-01-17T20:58:43.086Z,99.90
2023-01-17T21:01:13.154Z,99.90
2023-01-17T21:03:40.572Z,99.90
2023-01-17T21:06:09.990Z,99.90
2023-01-17T21:08:39.192Z,99.90
2023-01-17T21:11:08.147Z,99.90
2023-01-17T21:13:35.737Z,99.90
2023-01-17T21:16:03.656Z,99.90
2023-01-17T21:18:34.239Z,99.90
2023-01-17T21:21:08.162Z,99.90
2023-01-17T21:23:35.820Z,99.90
2023-01-17T21:26:03.784Z,99.90
2023-01-17T21:28:33.809Z,99.90
2023-01-17T21:31:05.985Z,99.90
2023-01-17T21:33:33.021Z,99.90
2023-01-17T21:36:10.607Z,99.90
2023-01-17T21:38:39.022Z,99.90
2023-01-17T21:41:06.557Z,99.90
2023-01-17T21:43:33.922Z,99.90
2023-01-17T21:46:05.013Z,99.90
2023-01-17T21:48:32.292Z,99.90
2023-01-17T21:51:07.583Z,99.90
2023-01-17T21:53:36.786Z,99.90
2023-01-17T21:56:24.688Z,99.90
2023-01-17T21:58:54.999Z,99.90
2023-01-17T22:01:23.862Z,99.90
2023-01-17T22:04:04.059Z,99.90
2023-01-17T22:06:39.130Z,99.90
2023-01-17T22:09:07.581Z,99.90
2023-01-17T22:11:36.987Z,99.90
2023-01-17T22:14:05.041Z,99.90
2023-01-17T22:16:32.295Z,99.90
2023-01-17T22:18:59.544Z,99.90
2023-01-17T22:21:28.407Z,99.90
2023-01-17T22:23:57.282Z,99.90
2023-01-17T22:26:30.222Z,99.90
2023-01-17T22:29:00.947Z,99.90
2023-01-17T22:31:29.237Z,99.90
2023-01-17T22:34:00.629Z,99.90
2023-01-17T22:36:28.143Z,99.90
2023-01-17T22:38:55.600Z,99.90
2023-01-17T22:41:25.409Z,99.90
2023-01-17T22:43:55.602Z,99.90
2023-01-17T22:46:29.792Z,99.90
2023-01-17T22:48:57.596Z,99.90
2023-01-17T22:51:26.744Z,99.90
2023-01-17T22:53:59.512Z,99.90
2023-01-17T22:56:32.115Z,99.90
2023-01-17T22:59:00.935Z,99.90
2023-01-17T23:01:30.774Z,99.90
2023-01-17T23:04:03.641Z,99.90
2023-01-17T23:06:34.622Z,99.90
2023-01-17T23:09:07.716Z,99.90
2023-01-17T23:11:43.603Z,99.90
2023-01-17T23:14:28.413Z,99.90
2023-01-17T23:17:13.746Z,99.90
2023-01-17T23:19:54.730Z,99.90
2023-01-17T23:22:26.779Z,99.90
2023-01-17T23:24:59.592Z,99.90
2023-01-17T23:27:44.932Z,99.90
2023-01-17T23:30:15.314Z,99.90
2023-01-17T23:32:54.532Z,99.90
2023-01-17T23:35:26.569Z,99.90
2023-01-17T23:38:12.233Z,99.90
2023-01-17T23:40:39.759Z,99.90
2023-01-17T23:43:25.336Z,99.90
2023-01-17T23:45:53.697Z,99.90
2023-01-17T23:48:23.535Z,99.90
2023-01-17T23:50:50.289Z,99.90
2023-01-17T23:53:23.181Z,99.90
2023-01-17T23:55:52.397Z,99.90
2023-01-17T23:58:20.794Z,99.90
